Flight Track Log - Related Links

Times and Time Zones

All times are in EDT time to prevent confusion due to time zone crossing. See the TAM3211 flight status page for this flight to view local times or setup timezone preferences in your user account.

Time Position Orientation Groundspeed Altitude Reporting Facility
EDT Latitude Longitude Course Direction KTS MPH feet Rate Location/Type
Thu 04:58:37 AM -19.6470 -43.9570 137° Southeast 152 175 3,300  Level FlightAware ADS-B
Thu 04:58:47 AM -19.6540 -43.9530 152° Southeast 166 191 3,500 1,200 Climbing FlightAware ADS-B
Thu 04:59:12 AM -19.6750 -43.9480 167° South 200 230 4,000 1,636 Climbing FlightAware ADS-B
Thu 04:59:42 AM -19.7040 -43.9390 164° South 226 260 5,000 2,400 Climbing FlightAware ADS-B
Thu 04:59:57 AM -19.7140 -43.9270 132° Southeast 224 258 5,800 2,880 Climbing FlightAware ADS-B
Thu 05:00:07 AM -19.7150 -43.9170 96° East 223 257 6,200 2,600 Climbing FlightAware ADS-B
Thu 05:00:27 AM -19.7080 -43.8970 70° East 223 257 7,100 2,800 Climbing FlightAware ADS-B
Thu 05:00:37 AM -19.6990 -43.8900 36° Northeast 222 255 7,600 2,700 Climbing FlightAware ADS-B
Thu 05:00:47 AM -19.6900 -43.8870 17° North 223 257 8,000 2,800 Climbing FlightAware ADS-B
Thu 05:01:07 AM -19.6700 -43.8920 347° North 221 254 9,000 2,267 Climbing FlightAware ADS-B
Thu 05:01:32 AM -19.6430 -43.9020 341° North 254 292 9,700 1,527 Climbing FlightAware ADS-B
Thu 05:02:02 AM -19.6080 -43.9160 339° North 288 331 10,400 1,333 Climbing FlightAware ADS-B
Thu 05:02:17 AM -19.5940 -43.9330 311° West 304 350 10,700 1,600 Climbing FlightAware ADS-B
Thu 05:02:32 AM -19.5880 -43.9520 289° West 319 367 11,200 2,182 Climbing FlightAware ADS-B
Thu 05:03:12 AM -19.5680 -44.0160 288° West 340 391 12,700 2,400 Climbing FlightAware ADS-B
Thu 05:03:27 AM -19.5680 -44.0400 270° West 339 390 13,400 2,533 Climbing FlightAware ADS-B
Thu 05:03:57 AM -19.5910 -44.0850 242° Southwest 347 399 14,600 2,143 Climbing FlightAware ADS-B
Thu 05:04:37 AM -19.6370 -44.1340 225° Southwest 367 422 15,900 1,341 Climbing FlightAware ADS-B
Thu 05:05:22 AM -19.6930 -44.1960 226° Southwest 405 466 16,500 900 Climbing FlightAware ADS-B
Thu 05:05:57 AM -19.7410 -44.2470 225° Southwest 429 494 17,100 2,175 Climbing FlightAware ADS-B
Thu 05:06:42 AM -19.8020 -44.3130 226° Southwest 409 471 19,400 3,000 Climbing FlightAware ADS-B
Thu 05:07:27 AM -19.8590 -44.3750 226° Southwest 397 457 21,600 2,400 Climbing FlightAware ADS-B
Thu 05:08:07 AM -19.9120 -44.4330 226° Southwest 408 470 22,800 1,800 Climbing FlightAware ADS-B
Thu 05:08:47 AM -19.9660 -44.4920 226° Southwest 418 481 24,000 1,765 Climbing FlightAware ADS-B
Thu 05:09:32 AM -20.0270 -44.5600 226° Southwest 426 490 25,300 1,835 Climbing FlightAware ADS-B
Thu 05:10:12 AM -20.0620 -44.6350 244° Southwest 429 494 26,600 1,976 Climbing FlightAware ADS-B
Thu 05:10:57 AM -20.0990 -44.7220 246° West 432 497 28,100 1,694 Climbing FlightAware ADS-B
Thu 05:11:37 AM -20.1310 -44.7990 246° West 441 507 29,000 1,553 Climbing FlightAware ADS-B
Thu 05:12:22 AM -20.1710 -44.8890 245° Southwest 442 509 30,300 1,765 Climbing FlightAware ADS-B
Thu 05:13:02 AM -20.2220 -44.9580 232° Southwest 440 506 31,500 1,800 Climbing FlightAware ADS-B
Thu 05:13:42 AM -20.2720 -45.0250 231° Southwest 435 501 32,700 1,906 Climbing FlightAware ADS-B
Thu 05:14:27 AM -20.3290 -45.0990 231° Southwest 425 489 34,200 1,950 Climbing FlightAware ADS-B
Thu 05:15:02 AM -20.3710 -45.1560 232° Southwest 416 479 35,300 1,341 Climbing FlightAware ADS-B
Thu 05:15:52 AM -20.4310 -45.2360 231° Southwest 411 473 36,100 1,267 Climbing FlightAware ADS-B
Thu 05:16:32 AM -20.4770 -45.2960 231° Southwest 400 460 37,200 1,271 Climbing FlightAware ADS-B
Thu 05:17:17 AM -20.5310 -45.3680 231° Southwest 400 460 37,900 565 Climbing FlightAware ADS-B
Thu 05:17:57 AM -20.5770 -45.4290 231° Southwest 396 456 38,000 75 Climbing FlightAware ADS-B
Thu 05:18:37 AM -20.6210 -45.4890 232° Southwest 400 460 38,000  Level FlightAware ADS-B
Thu 05:19:22 AM -20.6750 -45.5610 231° Southwest 405 466 38,000  Level FlightAware ADS-B
Thu 05:20:02 AM -20.7210 -45.6230 232° Southwest 405 466 38,000  Level FlightAware ADS-B
Thu 05:20:42 AM -20.7680 -45.6860 231° Southwest 406 467 38,000  Level FlightAware ADS-B
Thu 05:21:27 AM -20.8200 -45.7560 232° Southwest 406 467 38,000  Level FlightAware ADS-B
Thu 05:22:07 AM -20.8670 -45.8190 231° Southwest 406 467 38,000  Level FlightAware ADS-B
Thu 05:22:52 AM -20.9170 -45.8870 232° Southwest 406 467 38,000  Level FlightAware ADS-B
Thu 05:23:32 AM -20.9650 -45.9520 232° Southwest 405 466 38,000  Level FlightAware ADS-B
Thu 05:24:17 AM -21.0180 -46.0230 231° Southwest 405 466 38,000  Level FlightAware ADS-B
Thu 05:24:57 AM -21.0660 -46.0870 231° Southwest 405 466 38,000  Level FlightAware ADS-B
Thu 05:25:37 AM -21.1120 -46.1500 232° Southwest 404 465 38,000  Level FlightAware ADS-B
Thu 05:26:22 AM -21.1640 -46.2210 232° Southwest 405 466 38,000  Level FlightAware ADS-B
Thu 05:27:02 AM -21.2110 -46.2840 231° Southwest 406 467 38,000  Level FlightAware ADS-B
Thu 05:27:47 AM -21.2630 -46.3550 232° Southwest 409 471 38,000  Level FlightAware ADS-B
Thu 05:28:27 AM -21.3080 -46.4150 231° Southwest 411 473 38,000  Level FlightAware ADS-B
Thu 05:29:07 AM -21.3570 -46.4830 232° Southwest 412 474 38,000  Level FlightAware ADS-B
Thu 05:29:52 AM -21.4110 -46.5560 232° Southwest 413 475 38,000  Level FlightAware ADS-B
Thu 05:30:32 AM -21.4580 -46.6200 232° Southwest 412 474 38,000  Level FlightAware ADS-B
Thu 05:31:17 AM -21.5110 -46.6920 232° Southwest 413 475 38,000  Level FlightAware ADS-B
Thu 05:31:57 AM -21.5580 -46.7570 232° Southwest 413 475 38,000  Level FlightAware ADS-B
Thu 05:32:37 AM -21.6070 -46.8250 232° Southwest 413 475 38,000  Level FlightAware ADS-B
Thu 05:33:22 AM -21.6600 -46.8970 232° Southwest 409 471 38,000  Level FlightAware ADS-B
Thu 05:34:02 AM -21.7070 -46.9620 232° Southwest 409 471 38,000  Level FlightAware ADS-B
Thu 05:34:47 AM -21.7600 -47.0350 232° Southwest 414 476 38,000  Level FlightAware ADS-B
Thu 05:35:27 AM -21.8070 -47.0990 232° Southwest 416 479 38,000  Level FlightAware ADS-B
Thu 05:36:12 AM -21.8610 -47.1730 232° Southwest 417 480 38,000  Level FlightAware ADS-B
Thu 05:36:52 AM -21.9080 -47.2390 232° Southwest 418 481 38,000  Level FlightAware ADS-B
Thu 05:37:32 AM -21.9560 -47.3060 232° Southwest 418 481 38,000  Level FlightAware ADS-B
Thu 05:38:12 AM -22.0140 -47.3600 221° Southwest 429 494 38,000 -71 Level FlightAware ADS-B
Thu 05:38:57 AM -22.0970 -47.4000 204° Southwest 427 491 37,900 -2,067 Descending FlightAware ADS-B
Thu 05:39:42 AM -22.1800 -47.4430 206° Southwest 458 527 34,900 -3,388 Descending FlightAware ADS-B
Thu 05:40:22 AM -22.2560 -47.4810 205° Southwest 444 511 33,100 -3,459 Descending FlightAware ADS-B
Thu 05:41:07 AM -22.3440 -47.5250 205° Southwest 466 536 30,000 -3,388 Descending FlightAware ADS-B
Thu 05:41:47 AM -22.4220 -47.5640 205° Southwest 446 513 28,300 -2,475 Descending FlightAware ADS-B
Thu 05:42:27 AM -22.4970 -47.6010 205° Southwest 441 507 26,700 -2,400 Descending FlightAware ADS-B
Thu 05:43:12 AM -22.5790 -47.6430 205° Southwest 429 494 24,900 -2,400 Descending FlightAware ADS-B
Thu 05:43:47 AM -22.6450 -47.6630 196° South 416 479 23,500 -2,400 Descending FlightAware ADS-B
Thu 05:44:07 AM -22.6850 -47.6570 172° South 421 484 22,700 -2,160 Descending FlightAware ADS-B
Thu 05:44:37 AM -22.7340 -47.6260 150° Southeast 411 473 21,700 -2,143 Descending FlightAware ADS-B
Thu 05:45:17 AM -22.7900 -47.5730 139° Southeast 401 461 20,200 -2,775 Descending FlightAware ADS-B
Thu 05:45:57 AM -22.8500 -47.5190 140° Southeast 409 471 18,000 -2,753 Descending FlightAware ADS-B
Thu 05:46:42 AM -22.9140 -47.4600 140° Southeast 391 450 16,300 -1,553 Descending FlightAware ADS-B
Thu 05:47:22 AM -22.9670 -47.4100 139° Southeast 359 413 15,800 -675 Descending FlightAware ADS-B
Thu 05:48:02 AM -23.0150 -47.3650 139° Southeast 322 371 15,400 -988 Descending FlightAware ADS-B
Thu 05:48:47 AM -23.0660 -47.3170 139° Southeast 316 364 14,400 -988 Descending FlightAware ADS-B
Thu 05:49:27 AM -23.1060 -47.2800 140° Southeast 294 338 14,000 -686 Descending FlightAware ADS-B
Thu 05:49:57 AM -23.1390 -47.2490 139° Southeast 277 319 13,600 -988 Descending FlightAware ADS-B
Thu 05:50:52 AM -23.1880 -47.2040 140° Southeast 269 310 12,600 -1,067 Descending FlightAware ADS-B
Thu 05:51:27 AM -23.2220 -47.1720 139° Southeast 260 299 12,000 -825 Descending FlightAware ADS-B
Thu 05:52:12 AM -23.2610 -47.1360 140° Southeast 237 273 11,500 -847 Descending FlightAware ADS-B
Thu 05:52:52 AM -23.2930 -47.1050 138° Southeast 235 270 10,800 -1,129 Descending FlightAware ADS-B
Thu 05:53:37 AM -23.3310 -47.0730 142° Southeast 230 265 9,900 -1,100 Descending FlightAware ADS-B
Thu 05:53:52 AM -23.3460 -47.0660 157° South 229 264 9,700 -900 Descending FlightAware ADS-B
Thu 05:54:17 AM -23.3710 -47.0550 158° South 232 267 9,300 -655 Descending FlightAware ADS-B
Thu 05:54:47 AM -23.4000 -47.0430 159° South 227 261 9,100 -327 Descending FlightAware ADS-B
Thu 05:55:12 AM -23.4250 -47.0330 160° South 224 258 9,000 -545 Descending FlightAware ADS-B
Thu 05:55:42 AM -23.4540 -47.0200 158° South 224 258 8,600 -800 Descending FlightAware ADS-B
Thu 05:55:57 AM -23.4630 -47.0070 127° Southeast 218 251 8,400 -720 Descending FlightAware ADS-B
Thu 05:56:07 AM -23.4640 -46.9970 96° East 212 244 8,300 -900 Descending FlightAware ADS-B
Thu 05:56:37 AM -23.4550 -46.9670 72° East 205 236 7,800 -982 Descending FlightAware ADS-B
Thu 05:57:02 AM -23.4480 -46.9440 72° East 205 236 7,400 -1,200 Descending FlightAware ADS-B
Thu 05:57:22 AM -23.4510 -46.9220 98° East 207 238 6,900 -1,333 Descending FlightAware ADS-B
Thu 05:57:47 AM -23.4550 -46.8970 100° East 207 238 6,400 -857 Descending FlightAware ADS-B
Thu 05:58:32 AM -23.4610 -46.8530 98° East 193 222 5,900 -600 Descending FlightAware ADS-B
Thu 05:58:57 AM -23.4650 -46.8290 100° East 192 221 5,700 -360 Descending FlightAware ADS-B
Thu 05:59:22 AM -23.4700 -46.8050 103° East 194 223 5,600 -327 Descending FlightAware ADS-B
Thu 05:59:52 AM -23.4750 -46.7770 101° East 193 222 5,400 -327 Descending FlightAware ADS-B
Thu 06:00:17 AM -23.4840 -46.7550 114° Southeast 192 221 5,300 -600 Descending FlightAware ADS-B
Thu 06:00:52 AM -23.5100 -46.7370 148° Southeast 187 215 4,800 -880 Descending FlightAware ADS-B
Thu 06:01:32 AM -23.5360 -46.7190 148° Southeast 156 180 4,200 -982 Descending FlightAware ADS-B
Thu 06:01:47 AM -23.5480 -46.7110 149° Southeast 134 154 3,900 -360 Descending FlightAware ADS-B
Thu 06:02:22 AM -23.5640 -46.7000 148° Southeast 133 153 3,900 -646 Level FlightAware ADS-B
Thu 06:02:52 AM -23.5820 -46.6880 149° Southeast 133 153 3,200 -943 Descending FlightAware ADS-B
Thu 06:03:32 AM -23.6000 -46.6750 147° Southeast 122 140 2,800 -640 Descending FlightAware ADS-B
Thu 06:04:07 AM -23.6180 -46.6620 147° Southeast 130 150 2,400 -400 Descending FlightAware ADS-B
Thu 06:04:32 AM -23.6300 -46.6540 149° Southeast 130 150 2,400  Level FlightAware ADS-B
Thu 06:07:00 AM -23.6267 -46.6554 339° North  Level Estimated
Thu 06:08:00 AM -23.6267 -46.6554 114° Southeast  Level Estimated
Thu 06:09:00 AM -23.6267 -46.6554 114° Southeast  Level Estimated
Thu 06:10:00 AM -23.6267 -46.6554 114° Southeast  Level Estimated
Thu 06:11:00 AM -23.6267 -46.6554 114° Southeast  Level Estimated
Thu 06:12:00 AM -23.6267 -46.6554 114° Southeast  Level Estimated
Thu 06:13:00 AM -23.6267 -46.6554 114° Southeast  Level Estimated
Thu 06:14:00 AM -23.6267 -46.6554 114° Southeast  Level Estimated
Thu 06:15:00 AM -23.6267 -46.6554 114° Southeast  Level Estimated
Thu 06:16:00 AM -23.6267 -46.6554 114° Southeast  Level Estimated
Thu 06:17:00 AM -23.6267 -46.6554 114° Southeast  Level Estimated
Thu 06:18:00 AM -23.6267 -46.6554 114° Southeast  Level Estimated

Login

Don't have an account? Register now (free) for customized features, flight alerts, and more!